EGGD/BRS METAR and TAF weather

Enter ICAO airport designator
Station Type Date Time Source
EGGD METAR 2018/12/12 22:50 UTC NOAA

EGGD 122250Z AUTO 11014KT 9999 NCD 03/00 Q1014


Station Type Date Time Source
EGGD Decoded METAR 2018/12/12 22:50 UTC NOAA

Bristol / Lulsgate , United Kingdom (EGGD) 51-23N 002-43W
Dec 12, 2018 - 05:50 PM EST / 2018.12.12 2250 UTC
Wind: from the ESE (110 degrees) at 16 MPH (14 KT):0
Visibility: greater than 7 mile(s):0
Temperature: 37 F (3 C)
Dew Point: 32 F (0 C)
Relative Humidity: 80%
Pressure (altimeter): 29.94 in. Hg (1014 hPa)
ob: EGGD 122250Z AUTO 11014KT 9999 NCD 03/00 Q1014
cycle: 23

Station Type Date Time Source
EGGD TAF 2018/12/12 18:22 UTC NOAA

TAF
AMD EGGD 121817Z 1218/1318 11014KT 9999 FEW015 SCT020
TEMPO 1218/1312 12017G27KT PROB30
TEMPO 1218/1220 8000 BKN012 PROB30
TEMPO 1300/1309 BKN012


Example: see airport list